Thunder radar more information blitzortung!


Radar de pluja more information rain snow radar


Visita la nostra xarxa de llocs de meteo:

Template documentation
and downloads

And another site



No particular awareness of the weather is required.    There are no Weather-warnings

Pagina Historial Weather Underground text

Diari Resum Novembre 18, 2017 Unitats:  Tant    Imperial   Mètric
« Previous Dia
SegĂźent Dia »
Diari Setmana Mensual Anual Personalitzada
  Maxima: Minima: Media:
Temperatura: 61.9 °F /  16.6 °C 39.2 °F /  4.0 °C 52.2 °F /  11.2 °C
Punt de rosada: 45.9 °F /  7.7 °C 25.2 °F /  -3.8 °C 36.5 °F /  2.5 °C
Humitat: 65 % 45 % 55 %
Wind Speed: 5.8 mph /  9.3 km/h - 1.9 mph /  3 km/h
RĂ fegues de vent: 5.8 mph /  9.3 km/h - -
Vent:- - SSW
Pression baro: 30.2 in /  1022.9 hPa 30.1 in /  1018.8 hPa -
Precipitacions: 0 in /  0.0 mm    
Historical Graphs
 
 
Dades de taula per Novembre 18, 2017
Temps Temperatura Punt de rosada Pression baro Vent Wind Speed RĂ fegues de vent Humitat Rainfall Rate (Hourly)
00:00 48.2 °F /  9.0 °C 27.9 °F /  -2.3 °C 30.1 in /  1019.9 hPa WNW 1.2 mph /  1.9 km/h   45 % 0 in /  0.0 mm
00:05 48 °F /  8.9 °C 28.2 °F /  -2.1 °C 30.1 in /  1019.9 hPa West 1.4 mph /  2.3 km/h   46 % 0 in /  0.0 mm
00:10 47.7 °F /  8.7 °C 27.9 °F /  -2.3 °C 30.1 in /  1019.9 hPa West 1.2 mph /  1.9 km/h   46 % 0 in /  0.0 mm
00:15 47.3 °F /  8.5 °C 27.5 °F /  -2.5 °C 30.1 in /  1019.9 hPa Calm     46 % 0 in /  0.0 mm
00:25 41.4 °F /  5.2 °C 26.4 °F /  -3.1 °C 30.1 in /  1018.8 hPa Calm   2 mph /  3.2 km/h 55 % 0 in /  0.0 mm
00:35 41.2 °F /  5.1 °C 26.2 °F /  -3.2 °C 30.1 in /  1018.8 hPa WSW 1 mph /  1.6 km/h 2 mph /  3.2 km/h 55 % 0 in /  0.0 mm
00:45 40.1 °F /  4.5 °C 25.2 °F /  -3.8 °C 30.1 in /  1018.8 hPa WSW 2 mph /  3.2 km/h 2 mph /  3.2 km/h 55 % 0 in /  0.0 mm
00:55 40.1 °F /  4.5 °C 25.5 °F /  -3.6 °C 30.1 in /  1018.8 hPa Calm   2 mph /  3.2 km/h 56 % 0 in /  0.0 mm
01:05 40.1 °F /  4.5 °C 26.1 °F /  -3.3 °C 30.1 in /  1018.8 hPa Calm   2 mph /  3.2 km/h 57 % 0 in /  0.0 mm
01:15 40.1 °F /  4.5 °C 26.1 °F /  -3.3 °C 30.1 in /  1019.9 hPa Calm   2 mph /  3.2 km/h 57 % 0 in /  0.0 mm
01:25 39.9 °F /  4.4 °C 25.9 °F /  -3.4 °C 30.1 in /  1019.9 hPa SW 2 mph /  3.2 km/h 3 mph /  4.8 km/h 57 % 0 in /  0.0 mm
01:35 39.2 °F /  4.0 °C 25.5 °F /  -3.6 °C 30.1 in /  1019.9 hPa Calm   3 mph /  4.8 km/h 58 % 0 in /  0.0 mm
01:45 39.6 °F /  4.2 °C 26.1 °F /  -3.3 °C 30.1 in /  1019.9 hPa SW 2 mph /  3.2 km/h 2 mph /  3.2 km/h 58 % 0 in /  0.0 mm
01:55 39.6 °F /  4.2 °C 26.4 °F /  -3.1 °C 30.1 in /  1019.9 hPa Calm   2 mph /  3.2 km/h 59 % 0 in /  0.0 mm
02:05 39.9 °F /  4.4 °C 26.8 °F /  -2.9 °C 30.1 in /  1019.9 hPa Calm   2 mph /  3.2 km/h 59 % 0 in /  0.0 mm
02:15 40.6 °F /  4.8 °C 27.3 °F /  -2.6 °C 30.1 in /  1019.9 hPa West 1 mph /  1.6 km/h 2 mph /  3.2 km/h 59 % 0 in /  0.0 mm
02:25 40.8 °F /  4.9 °C 27.7 °F /  -2.4 °C 30.1 in /  1019.9 hPa NW 1 mph /  1.6 km/h 1 mph /  1.6 km/h 59 % 0 in /  0.0 mm
02:35 41.5 °F /  5.3 °C 28.8 °F /  -1.8 °C 30.1 in /  1019.9 hPa NE 2 mph /  3.2 km/h 2 mph /  3.2 km/h 60 % 0 in /  0.0 mm
02:45 42.3 °F /  5.7 °C 28.9 °F /  -1.7 °C 30.1 in /  1019.9 hPa NW 1 mph /  1.6 km/h 2 mph /  3.2 km/h 59 % 0 in /  0.0 mm
02:55 43.5 °F /  6.4 °C 30 °F /  -1.1 °C 30.2 in /  1020.9 hPa North 2 mph /  3.2 km/h 2 mph /  3.2 km/h 59 % 0 in /  0.0 mm
03:05 44.4 °F /  6.9 °C 30.6 °F /  -0.8 °C 30.2 in /  1020.9 hPa Calm   1 mph /  1.6 km/h 58 % 0 in /  0.0 mm
03:15 45.5 °F /  7.5 °C 31.6 °F /  -0.2 °C 30.1 in /  1019.9 hPa Calm   1 mph /  1.6 km/h 58 % 0 in /  0.0 mm
03:25 45.7 °F /  7.6 °C 31.3 °F /  -0.4 °C 30.2 in /  1020.9 hPa North 1 mph /  1.6 km/h 3 mph /  4.8 km/h 57 % 0 in /  0.0 mm
03:35 46.6 °F /  8.1 °C 31.6 °F /  -0.2 °C 30.2 in /  1020.9 hPa North 1 mph /  1.6 km/h 2 mph /  3.2 km/h 56 % 0 in /  0.0 mm
03:45 46.2 °F /  7.9 °C 31.5 °F /  -0.3 °C 30.2 in /  1020.9 hPa Calm   2 mph /  3.2 km/h 56 % 0 in /  0.0 mm
03:55 46.8 °F /  8.2 °C 31.8 °F /  -0.1 °C 30.2 in /  1020.9 hPa WSW 2 mph /  3.2 km/h 3 mph /  4.8 km/h 56 % 0 in /  0.0 mm
04:05 46.8 °F /  8.2 °C 31.8 °F /  -0.1 °C 30.2 in /  1020.9 hPa SW 1 mph /  1.6 km/h 3 mph /  4.8 km/h 56 % 0 in /  0.0 mm
04:15 48.4 °F /  9.1 °C 33.8 °F /  1.0 °C 30.2 in /  1020.9 hPa SW 1 mph /  1.6 km/h 3 mph /  4.8 km/h 57 % 0 in /  0.0 mm
04:25 49.6 °F /  9.8 °C 34.5 °F /  1.4 °C 30.2 in /  1020.9 hPa SW 1 mph /  1.6 km/h 3 mph /  4.8 km/h 56 % 0 in /  0.0 mm
04:35 50.2 °F /  10.1 °C 34.5 °F /  1.4 °C 30.2 in /  1020.9 hPa SW 3 mph /  4.8 km/h 3 mph /  4.8 km/h 55 % 0 in /  0.0 mm
04:55 52.7 °F /  11.5 °C 36.5 °F /  2.5 °C 30.2 in /  1020.9 hPa SSE 1 mph /  1.6 km/h 2 mph /  3.2 km/h 54 % 0 in /  0.0 mm
05:05 53.2 °F /  11.8 °C 37 °F /  2.8 °C 30.2 in /  1020.9 hPa East 1 mph /  1.6 km/h 2 mph /  3.2 km/h 54 % 0 in /  0.0 mm
11:08 53.2 °F /  11.8 °C 36.5 °F /  2.5 °C 30.2 in /  1020.9 hPa North 3.5 mph /  5.6 km/h 3.5 mph /  5.6 km/h 53 % 0 in /  0.0 mm
11:09 53.2 °F /  11.8 °C 36.5 °F /  2.5 °C 30.2 in /  1020.9 hPa North 3.5 mph /  5.6 km/h 3.5 mph /  5.6 km/h 53 % 0 in /  0.0 mm
11:14 53.2 °F /  11.8 °C 36.5 °F /  2.5 °C 30.2 in /  1020.9 hPa North 3.5 mph /  5.6 km/h 3.5 mph /  5.6 km/h 53 % 0 in /  0.0 mm
11:19 53.4 °F /  11.9 °C 36.7 °F /  2.6 °C 30.2 in /  1021.9 hPa NNE 5.8 mph /  9.3 km/h 5.8 mph /  9.3 km/h 53 % 0 in /  0.0 mm
11:24 53.4 °F /  11.9 °C 36.7 °F /  2.6 °C 30.2 in /  1021.9 hPa NNW 4.6 mph /  7.4 km/h 4.6 mph /  7.4 km/h 53 % 0 in /  0.0 mm
11:29 53.4 °F /  11.9 °C 36.7 °F /  2.6 °C 30.2 in /  1021.9 hPa NW 5.8 mph /  9.3 km/h 5.8 mph /  9.3 km/h 53 % 0 in /  0.0 mm
11:34 54.3 °F /  12.4 °C 37 °F /  2.8 °C 30.2 in /  1021.9 hPa North 1.4 mph /  2.3 km/h   52 % 0 in /  0.0 mm
11:39 54.7 °F /  12.6 °C 37.4 °F /  3.0 °C 30.2 in /  1021.9 hPa NNE 2.4 mph /  3.9 km/h 2.4 mph /  3.9 km/h 52 % 0 in /  0.0 mm
11:44 55 °F /  12.8 °C 37.8 °F /  3.2 °C 30.2 in /  1021.9 hPa North 3.5 mph /  5.6 km/h 3.5 mph /  5.6 km/h 52 % 0 in /  0.0 mm
11:49 55 °F /  12.8 °C 37.8 °F /  3.2 °C 30.2 in /  1021.9 hPa ESE 3.6 mph /  5.8 km/h 3.6 mph /  5.8 km/h 52 % 0 in /  0.0 mm
11:54 55.4 °F /  13.0 °C 38.1 °F /  3.4 °C 30.2 in /  1021.9 hPa East 3.5 mph /  5.6 km/h 3.5 mph /  5.6 km/h 52 % 0 in /  0.0 mm
11:59 55.8 °F /  13.2 °C 38.5 °F /  3.6 °C 30.2 in /  1021.9 hPa NNE 3.5 mph /  5.6 km/h 3.5 mph /  5.6 km/h 52 % 0 in /  0.0 mm
12:04 56.3 °F /  13.5 °C 38.8 °F /  3.8 °C 30.2 in /  1021.9 hPa NNW 2.3 mph /  3.7 km/h 2.3 mph /  3.7 km/h 52 % 0 in /  0.0 mm
12:09 56.7 °F /  13.7 °C 39.2 °F /  4.0 °C 30.2 in /  1021.9 hPa WNW 3.5 mph /  5.6 km/h 3.5 mph /  5.6 km/h 52 % 0 in /  0.0 mm
12:14 56.8 °F /  13.8 °C 39.4 °F /  4.1 °C 30.2 in /  1021.9 hPa NW 2.9 mph /  4.7 km/h 2.9 mph /  4.7 km/h 52 % 0 in /  0.0 mm
12:19 57.4 °F /  14.1 °C 39.9 °F /  4.4 °C 30.2 in /  1021.9 hPa NNE 1.6 mph /  2.6 km/h 1.6 mph /  2.6 km/h 52 % 0 in /  0.0 mm
12:24 57.9 °F /  14.4 °C 40.5 °F /  4.7 °C 30.2 in /  1021.9 hPa NNE 2.6 mph /  4.2 km/h 2.6 mph /  4.2 km/h 52 % 0 in /  0.0 mm
12:29 58.1 °F /  14.5 °C 40.6 °F /  4.8 °C 30.2 in /  1021.9 hPa NNW 3.5 mph /  5.6 km/h 3.5 mph /  5.6 km/h 52 % 0 in /  0.0 mm
12:34 58.5 °F /  14.7 °C 40.8 °F /  4.9 °C 30.2 in /  1020.9 hPa NE 2.3 mph /  3.7 km/h 2.3 mph /  3.7 km/h 52 % 0 in /  0.0 mm
12:39 58.5 °F /  14.7 °C 40.8 °F /  4.9 °C 30.2 in /  1020.9 hPa ENE 2.3 mph /  3.7 km/h 2.3 mph /  3.7 km/h 52 % 0 in /  0.0 mm
12:44 59 °F /  15.0 °C 41.4 °F /  5.2 °C 30.2 in /  1020.9 hPa ENE 3.5 mph /  5.6 km/h 3.5 mph /  5.6 km/h 52 % 0 in /  0.0 mm
12:49 59.2 °F /  15.1 °C 41.5 °F /  5.3 °C 30.2 in /  1021.9 hPa NE 3.6 mph /  5.8 km/h 3.6 mph /  5.8 km/h 52 % 0 in /  0.0 mm
12:51 59.2 °F /  15.1 °C 41.5 °F /  5.3 °C 30.2 in /  1021.9 hPa NNE 3.5 mph /  5.6 km/h 3.5 mph /  5.6 km/h 52 % 0 in /  0.0 mm
12:56 59.9 °F /  15.5 °C 41.7 °F /  5.4 °C 30.2 in /  1021.9 hPa WSW 2 mph /  3.2 km/h   51 % 0 in /  0.0 mm
13:01 60.4 °F /  15.8 °C 42.6 °F /  5.9 °C 30.2 in /  1021.9 hPa NNE 2.3 mph /  3.7 km/h 2.3 mph /  3.7 km/h 52 % 0 in /  0.0 mm
13:06 60.3 °F /  15.7 °C 42.6 °F /  5.9 °C 30.2 in /  1021.9 hPa NE 2.3 mph /  3.7 km/h 2.3 mph /  3.7 km/h 52 % 0 in /  0.0 mm
13:11 60.4 °F /  15.8 °C 42.6 °F /  5.9 °C 30.2 in /  1021.9 hPa ESE 2.3 mph /  3.7 km/h 2.3 mph /  3.7 km/h 52 % 0 in /  0.0 mm
13:16 60.8 °F /  16.0 °C 43.2 °F /  6.2 °C 30.2 in /  1021.9 hPa SW 3.1 mph /  5.0 km/h 3.1 mph /  5.0 km/h 52 % 0 in /  0.0 mm
13:21 61.5 °F /  16.4 °C 43.7 °F /  6.5 °C 30.2 in /  1021.9 hPa SW 2.3 mph /  3.7 km/h   52 % 0 in /  0.0 mm
13:26 61.5 °F /  16.4 °C 44.2 °F /  6.8 °C 30.2 in /  1021.9 hPa NW 1.2 mph /  1.9 km/h 1.4 mph /  2.3 km/h 53 % 0 in /  0.0 mm
13:31 61.2 °F /  16.2 °C 43.9 °F /  6.6 °C 30.2 in /  1021.9 hPa North 1.2 mph /  1.9 km/h 1.2 mph /  1.9 km/h 53 % 0 in /  0.0 mm
13:36 61.3 °F /  16.3 °C 44.1 °F /  6.7 °C 30.2 in /  1021.9 hPa NNE 1.2 mph /  1.9 km/h   53 % 0 in /  0.0 mm
13:41 61.3 °F /  16.3 °C 44.1 °F /  6.7 °C 30.2 in /  1021.9 hPa NNW 2.3 mph /  3.7 km/h 2.3 mph /  3.7 km/h 53 % 0 in /  0.0 mm
13:46 61.7 °F /  16.5 °C 45 °F /  7.2 °C 30.2 in /  1021.9 hPa NNE 2 mph /  3.2 km/h 2 mph /  3.2 km/h 54 % 0 in /  0.0 mm
13:51 61.2 °F /  16.2 °C 44.4 °F /  6.9 °C 30.2 in /  1020.9 hPa NE 4.6 mph /  7.4 km/h 4.6 mph /  7.4 km/h 54 % 0 in /  0.0 mm
13:56 61 °F /  16.1 °C 44.8 °F /  7.1 °C 30.2 in /  1020.9 hPa SE 2.3 mph /  3.7 km/h 2.3 mph /  3.7 km/h 55 % 0 in /  0.0 mm
14:01 61 °F /  16.1 °C 44.8 °F /  7.1 °C 30.2 in /  1020.9 hPa ESE 3.5 mph /  5.6 km/h 3.5 mph /  5.6 km/h 55 % 0 in /  0.0 mm
14:06 60.8 °F /  16.0 °C 44.4 °F /  6.9 °C 30.2 in /  1021.9 hPa ESE 4.6 mph /  7.4 km/h 4.6 mph /  7.4 km/h 55 % 0 in /  0.0 mm
14:11 60.8 °F /  16.0 °C 45 °F /  7.2 °C 30.2 in /  1021.9 hPa ESE 3.6 mph /  5.8 km/h 3.6 mph /  5.8 km/h 56 % 0 in /  0.0 mm
14:16 60.8 °F /  16.0 °C 45 °F /  7.2 °C 30.2 in /  1021.9 hPa WSW 2 mph /  3.2 km/h   56 % 0 in /  0.0 mm
14:21 61.2 °F /  16.2 °C 45.3 °F /  7.4 °C 30.2 in /  1020.9 hPa ESE 2.3 mph /  3.7 km/h 2.3 mph /  3.7 km/h 56 % 0 in /  0.0 mm
14:26 61.3 °F /  16.3 °C 45.5 °F /  7.5 °C 30.2 in /  1020.9 hPa ESE 2.4 mph /  3.9 km/h 2.4 mph /  3.9 km/h 56 % 0 in /  0.0 mm
14:31 61.5 °F /  16.4 °C 45.7 °F /  7.6 °C 30.2 in /  1020.9 hPa East 2.4 mph /  3.9 km/h 2.4 mph /  3.9 km/h 56 % 0 in /  0.0 mm
14:36 61.3 °F /  16.3 °C 45.5 °F /  7.5 °C 30.2 in /  1020.9 hPa NE 3.5 mph /  5.6 km/h 3.5 mph /  5.6 km/h 56 % 0 in /  0.0 mm
14:41 61.5 °F /  16.4 °C 45.7 °F /  7.6 °C 30.2 in /  1020.9 hPa East 3.6 mph /  5.8 km/h 3.6 mph /  5.8 km/h 56 % 0 in /  0.0 mm
14:46 61.3 °F /  16.3 °C 45.5 °F /  7.5 °C 30.2 in /  1020.9 hPa NNE 3.5 mph /  5.6 km/h 3.5 mph /  5.6 km/h 56 % 0 in /  0.0 mm
14:51 61.5 °F /  16.4 °C 45.7 °F /  7.6 °C 30.2 in /  1020.9 hPa SSE 2.9 mph /  4.7 km/h 2.9 mph /  4.7 km/h 56 % 0 in /  0.0 mm
14:56 61.7 °F /  16.5 °C 45.9 °F /  7.7 °C 30.2 in /  1020.9 hPa ESE 3.5 mph /  5.6 km/h 3.5 mph /  5.6 km/h 56 % 0 in /  0.0 mm
15:01 61.7 °F /  16.5 °C 45.9 °F /  7.7 °C 30.2 in /  1020.9 hPa NE 2.4 mph /  3.9 km/h 2.4 mph /  3.9 km/h 56 % 0 in /  0.0 mm
15:06 61.5 °F /  16.4 °C 45.7 °F /  7.6 °C 30.2 in /  1020.9 hPa ESE 2.6 mph /  4.2 km/h 2.6 mph /  4.2 km/h 56 % 0 in /  0.0 mm
15:11 61.5 °F /  16.4 °C 45.1 °F /  7.3 °C 30.2 in /  1020.9 hPa ENE 2.3 mph /  3.7 km/h 2.3 mph /  3.7 km/h 55 % 0 in /  0.0 mm
15:16 61.7 °F /  16.5 °C 45.9 °F /  7.7 °C 30.2 in /  1020.9 hPa NNE 2.6 mph /  4.2 km/h 2.6 mph /  4.2 km/h 56 % 0 in /  0.0 mm
15:21 61.7 °F /  16.5 °C 45.3 °F /  7.4 °C 30.2 in /  1020.9 hPa NE 2.3 mph /  3.7 km/h 2.3 mph /  3.7 km/h 55 % 0 in /  0.0 mm
15:26 61.9 °F /  16.6 °C 45.5 °F /  7.5 °C 30.2 in /  1020.9 hPa Calm     55 % 0 in /  0.0 mm
15:31 61.9 °F /  16.6 °C 45.5 °F /  7.5 °C 30.2 in /  1020.9 hPa ENE 2.4 mph /  3.9 km/h 2.4 mph /  3.9 km/h 55 % 0 in /  0.0 mm
15:36 61.7 °F /  16.5 °C 45.3 °F /  7.4 °C 30.2 in /  1020.9 hPa East 2.3 mph /  3.7 km/h 2.3 mph /  3.7 km/h 55 % 0 in /  0.0 mm
15:41 61.7 °F /  16.5 °C 45.3 °F /  7.4 °C 30.2 in /  1020.9 hPa SE 3.5 mph /  5.6 km/h 3.5 mph /  5.6 km/h 55 % 0 in /  0.0 mm
15:46 61.7 °F /  16.5 °C 45.3 °F /  7.4 °C 30.2 in /  1020.9 hPa East 2.3 mph /  3.7 km/h 2.3 mph /  3.7 km/h 55 % 0 in /  0.0 mm
15:51 61.9 °F /  16.6 °C 45.5 °F /  7.5 °C 30.2 in /  1020.9 hPa ENE 2.4 mph /  3.9 km/h 2.4 mph /  3.9 km/h 55 % 0 in /  0.0 mm
15:56 61.9 °F /  16.6 °C 45.5 °F /  7.5 °C 30.2 in /  1020.9 hPa ESE 2.3 mph /  3.7 km/h 2.3 mph /  3.7 km/h 55 % 0 in /  0.0 mm
16:01 61.7 °F /  16.5 °C 45.3 °F /  7.4 °C 30.2 in /  1020.9 hPa ESE 3.5 mph /  5.6 km/h 3.5 mph /  5.6 km/h 55 % 0 in /  0.0 mm
16:06 61.7 °F /  16.5 °C 45.3 °F /  7.4 °C 30.2 in /  1020.9 hPa ESE 2 mph /  3.2 km/h 2 mph /  3.2 km/h 55 % 0 in /  0.0 mm
16:11 61.7 °F /  16.5 °C 45.3 °F /  7.4 °C 30.2 in /  1020.9 hPa ESE 2.6 mph /  4.2 km/h 2.6 mph /  4.2 km/h 55 % 0 in /  0.0 mm
16:16 61.7 °F /  16.5 °C 45.3 °F /  7.4 °C 30.2 in /  1020.9 hPa ESE 2.6 mph /  4.2 km/h 2.6 mph /  4.2 km/h 55 % 0 in /  0.0 mm
16:21 61.5 °F /  16.4 °C 45.1 °F /  7.3 °C 30.2 in /  1020.9 hPa ESE 2.3 mph /  3.7 km/h 2.3 mph /  3.7 km/h 55 % 0 in /  0.0 mm
16:26 61.5 °F /  16.4 °C 45.1 °F /  7.3 °C 30.2 in /  1020.9 hPa East 2.3 mph /  3.7 km/h 2.3 mph /  3.7 km/h 55 % 0 in /  0.0 mm
16:31 61.5 °F /  16.4 °C 45.1 °F /  7.3 °C 30.2 in /  1020.9 hPa SE 2.4 mph /  3.9 km/h 2.4 mph /  3.9 km/h 55 % 0 in /  0.0 mm
16:36 61.7 °F /  16.5 °C 45.3 °F /  7.4 °C 30.2 in /  1020.9 hPa South 1.2 mph /  1.9 km/h 1.2 mph /  1.9 km/h 55 % 0 in /  0.0 mm
16:41 61.9 °F /  16.6 °C 45.5 °F /  7.5 °C 30.2 in /  1020.9 hPa SSE 2.6 mph /  4.2 km/h   55 % 0 in /  0.0 mm
16:46 61.7 °F /  16.5 °C 45.3 °F /  7.4 °C 30.2 in /  1020.9 hPa South 1.2 mph /  1.9 km/h 1.2 mph /  1.9 km/h 55 % 0 in /  0.0 mm
16:51 61.7 °F /  16.5 °C 45.3 °F /  7.4 °C 30.2 in /  1020.9 hPa South 1.2 mph /  1.9 km/h   55 % 0 in /  0.0 mm
16:56 61.5 °F /  16.4 °C 45.7 °F /  7.6 °C 30.2 in /  1020.9 hPa SSE 1.2 mph /  1.9 km/h   56 % 0 in /  0.0 mm
17:01 61.3 °F /  16.3 °C 45.5 °F /  7.5 °C 30.2 in /  1020.9 hPa SE 2.3 mph /  3.7 km/h 2.3 mph /  3.7 km/h 56 % 0 in /  0.0 mm
17:06 61.2 °F /  16.2 °C 45 °F /  7.2 °C 30.2 in /  1020.9 hPa East 1.2 mph /  1.9 km/h 1.2 mph /  1.9 km/h 55 % 0 in /  0.0 mm
17:11 60.8 °F /  16.0 °C 45 °F /  7.2 °C 30.2 in /  1020.9 hPa East 1.2 mph /  1.9 km/h 1.2 mph /  1.9 km/h 56 % 0 in /  0.0 mm
17:16 60.6 °F /  15.9 °C 44.8 °F /  7.1 °C 30.2 in /  1020.9 hPa Calm     56 % 0 in /  0.0 mm
17:21 60.3 °F /  15.7 °C 44.4 °F /  6.9 °C 30.2 in /  1020.9 hPa Calm     56 % 0 in /  0.0 mm
17:26 59.9 °F /  15.5 °C 44.2 °F /  6.8 °C 30.2 in /  1020.9 hPa Calm     56 % 0 in /  0.0 mm
17:31 59.5 °F /  15.3 °C 44.2 °F /  6.8 °C 30.2 in /  1020.9 hPa WSW 1.4 mph /  2.3 km/h 1.4 mph /  2.3 km/h 57 % 0 in /  0.0 mm
17:36 59 °F /  15.0 °C 43.9 °F /  6.6 °C 30.2 in /  1020.9 hPa WSW 1.4 mph /  2.3 km/h 1.4 mph /  2.3 km/h 57 % 0 in /  0.0 mm
17:41 58.6 °F /  14.8 °C 43.3 °F /  6.3 °C 30.2 in /  1020.9 hPa WSW 2 mph /  3.2 km/h 2 mph /  3.2 km/h 57 % 0 in /  0.0 mm
17:46 57.9 °F /  14.4 °C 43.2 °F /  6.2 °C 30.2 in /  1020.9 hPa WSW 2.3 mph /  3.7 km/h 2.3 mph /  3.7 km/h 58 % 0 in /  0.0 mm
17:51 57.7 °F /  14.3 °C 43.2 °F /  6.2 °C 30.2 in /  1021.9 hPa WSW 1.2 mph /  1.9 km/h 1.2 mph /  1.9 km/h 58 % 0 in /  0.0 mm
17:56 57.2 °F /  14.0 °C 42.1 °F /  5.6 °C 30.2 in /  1021.9 hPa WNW 1.4 mph /  2.3 km/h 1.4 mph /  2.3 km/h 57 % 0 in /  0.0 mm
18:01 57 °F /  13.9 °C 41.5 °F /  5.3 °C 30.2 in /  1021.9 hPa WSW 3.5 mph /  5.6 km/h 3.5 mph /  5.6 km/h 56 % 0 in /  0.0 mm
18:03 57 °F /  13.9 °C 41.5 °F /  5.3 °C 30.2 in /  1021.9 hPa WNW 1.2 mph /  1.9 km/h   56 % 0 in /  0.0 mm
18:08 56.7 °F /  13.7 °C 41.5 °F /  5.3 °C 30.2 in /  1021.9 hPa East 3.1 mph /  5.0 km/h 3.1 mph /  5.0 km/h 57 % 0 in /  0.0 mm
18:13 56.5 °F /  13.6 °C 41.9 °F /  5.5 °C 30.2 in /  1021.9 hPa WSW 2.9 mph /  4.7 km/h 2.9 mph /  4.7 km/h 58 % 0 in /  0.0 mm
18:18 56.3 °F /  13.5 °C 41.4 °F /  5.2 °C 30.2 in /  1021.9 hPa West 2 mph /  3.2 km/h 2 mph /  3.2 km/h 57 % 0 in /  0.0 mm
18:23 55.9 °F /  13.3 °C 40.8 °F /  4.9 °C 30.2 in /  1021.9 hPa WSW 2.3 mph /  3.7 km/h 2.3 mph /  3.7 km/h 57 % 0 in /  0.0 mm
18:28 55.6 °F /  13.1 °C 40.6 °F /  4.8 °C 30.2 in /  1021.9 hPa West 2.3 mph /  3.7 km/h 2.3 mph /  3.7 km/h 57 % 0 in /  0.0 mm
18:33 55.2 °F /  12.9 °C 39.7 °F /  4.3 °C 30.2 in /  1021.9 hPa West 2.3 mph /  3.7 km/h 2.3 mph /  3.7 km/h 56 % 0 in /  0.0 mm
18:38 55 °F /  12.8 °C 39.2 °F /  4.0 °C 30.2 in /  1021.9 hPa West 3.5 mph /  5.6 km/h 3.5 mph /  5.6 km/h 55 % 0 in /  0.0 mm
18:43 54.9 °F /  12.7 °C 38.5 °F /  3.6 °C 30.2 in /  1021.9 hPa SW 2.3 mph /  3.7 km/h 2.3 mph /  3.7 km/h 54 % 0 in /  0.0 mm
18:48 54.3 °F /  12.4 °C 37.9 °F /  3.3 °C 30.2 in /  1021.9 hPa SW 2 mph /  3.2 km/h 2 mph /  3.2 km/h 54 % 0 in /  0.0 mm
18:53 54 °F /  12.2 °C 37.2 °F /  2.9 °C 30.2 in /  1021.9 hPa SW 2.3 mph /  3.7 km/h 2.3 mph /  3.7 km/h 53 % 0 in /  0.0 mm
18:58 53.6 °F /  12.0 °C 36.9 °F /  2.7 °C 30.2 in /  1021.9 hPa SW 1.6 mph /  2.6 km/h 1.6 mph /  2.6 km/h 53 % 0 in /  0.0 mm
19:00 45.1 °F /  7.3 °C 30.7 °F /  -0.7 °C 30.2 in /  1020.9 hPa NW 1 mph /  1.6 km/h 2 mph /  3.2 km/h 57 % 0 in /  0.0 mm
19:03 53.2 °F /  11.8 °C 36.5 °F /  2.5 °C 30.2 in /  1021.9 hPa SW 3.5 mph /  5.6 km/h 3.5 mph /  5.6 km/h 53 % 0 in /  0.0 mm
19:08 52.9 °F /  11.6 °C 36.1 °F /  2.3 °C 30.2 in /  1021.9 hPa SW 3.5 mph /  5.6 km/h 3.5 mph /  5.6 km/h 53 % 0 in /  0.0 mm
19:10 45 °F /  7.2 °C 31.1 °F /  -0.5 °C 30.2 in /  1020.9 hPa North 1 mph /  1.6 km/h 2 mph /  3.2 km/h 58 % 0 in /  0.0 mm
19:13 52.7 °F /  11.5 °C 36 °F /  2.2 °C 30.2 in /  1021.9 hPa SW 2.3 mph /  3.7 km/h 2.3 mph /  3.7 km/h 53 % 0 in /  0.0 mm
19:18 52.3 °F /  11.3 °C 35.8 °F /  2.1 °C 30.2 in /  1021.9 hPa WSW 3.5 mph /  5.6 km/h 3.5 mph /  5.6 km/h 53 % 0 in /  0.0 mm
19:20 44.2 °F /  6.8 °C 30.4 °F /  -0.9 °C 30.2 in /  1020.9 hPa Calm   1 mph /  1.6 km/h 58 % 0 in /  0.0 mm
19:23 52.2 °F /  11.2 °C 35.4 °F /  1.9 °C 30.2 in /  1021.9 hPa SW 2.4 mph /  3.9 km/h 2.4 mph /  3.9 km/h 53 % 0 in /  0.0 mm
19:28 52 °F /  11.1 °C 35.4 °F /  1.9 °C 30.2 in /  1021.9 hPa WSW 2.3 mph /  3.7 km/h 2.3 mph /  3.7 km/h 53 % 0 in /  0.0 mm
19:33 52 °F /  11.1 °C 35.4 °F /  1.9 °C 30.2 in /  1021.9 hPa SW 2.4 mph /  3.9 km/h 2.4 mph /  3.9 km/h 53 % 0 in /  0.0 mm
19:38 51.8 °F /  11.0 °C 35.2 °F /  1.8 °C 30.2 in /  1021.9 hPa WSW 2.3 mph /  3.7 km/h 2.3 mph /  3.7 km/h 53 % 0 in /  0.0 mm
19:40 43.3 °F /  6.3 °C 30 °F /  -1.1 °C 30.1 in /  1019.9 hPa Calm   2 mph /  3.2 km/h 59 % 0 in /  0.0 mm
19:43 51.8 °F /  11.0 °C 35.2 °F /  1.8 °C 30.2 in /  1021.9 hPa WSW 2.3 mph /  3.7 km/h   53 % 0 in /  0.0 mm
19:48 51.6 °F /  10.9 °C 35.1 °F /  1.7 °C 30.2 in /  1021.9 hPa Calm     53 % 0 in /  0.0 mm
19:50 43.2 °F /  6.2 °C 30.2 °F /  -1.0 °C 30.1 in /  1019.9 hPa WSW 1 mph /  1.6 km/h 1 mph /  1.6 km/h 60 % 0 in /  0.0 mm
19:53 51.6 °F /  10.9 °C 35.1 °F /  1.7 °C 30.2 in /  1021.9 hPa East 2.3 mph /  3.7 km/h 2.3 mph /  3.7 km/h 53 % 0 in /  0.0 mm
19:58 51.4 °F /  10.8 °C 34.9 °F /  1.6 °C 30.2 in /  1021.9 hPa Calm     53 % 0 in /  0.0 mm
20:03 51.1 °F /  10.6 °C 34.5 °F /  1.4 °C 30.2 in /  1021.9 hPa WSW 2.3 mph /  3.7 km/h 2.3 mph /  3.7 km/h 53 % 0 in /  0.0 mm
20:08 50.9 °F /  10.5 °C 34.3 °F /  1.3 °C 30.2 in /  1021.9 hPa SW 1.4 mph /  2.3 km/h 1.4 mph /  2.3 km/h 53 % 0 in /  0.0 mm
20:10 42.4 °F /  5.8 °C 29.8 °F /  -1.2 °C 30.1 in /  1018.8 hPa Calm   1 mph /  1.6 km/h 61 % 0 in /  0.0 mm
20:13 50.9 °F /  10.5 °C 34.3 °F /  1.3 °C 30.2 in /  1021.9 hPa SW 2.3 mph /  3.7 km/h 2.3 mph /  3.7 km/h 53 % 0 in /  0.0 mm
20:18 50.7 °F /  10.4 °C 34.2 °F /  1.2 °C 30.2 in /  1021.9 hPa Calm     53 % 0 in /  0.0 mm
20:20 42.4 °F /  5.8 °C 29.8 °F /  -1.2 °C 30.1 in /  1018.8 hPa WSW 1 mph /  1.6 km/h 2 mph /  3.2 km/h 61 % 0 in /  0.0 mm
20:23 50.4 °F /  10.2 °C 34 °F /  1.1 °C 30.2 in /  1021.9 hPa Calm     53 % 0 in /  0.0 mm
20:28 50.2 °F /  10.1 °C 33.6 °F /  0.9 °C 30.2 in /  1021.9 hPa WSW 2.6 mph /  4.2 km/h 2.6 mph /  4.2 km/h 53 % 0 in /  0.0 mm
20:30 42.8 °F /  6.0 °C 30.4 °F /  -0.9 °C 30.1 in /  1019.9 hPa West 1 mph /  1.6 km/h 2 mph /  3.2 km/h 61 % 0 in /  0.0 mm
20:38 50 °F /  10.0 °C 33.4 °F /  0.8 °C 30.2 in /  1021.9 hPa SW 2.2 mph /  3.5 km/h   53 % 0 in /  0.0 mm
20:40 42.8 °F /  6.0 °C 30.7 °F /  -0.7 °C 30.1 in /  1019.9 hPa West 1 mph /  1.6 km/h 3 mph /  4.8 km/h 62 % 0 in /  0.0 mm
20:43 50 °F /  10.0 °C 33.4 °F /  0.8 °C 30.2 in /  1021.9 hPa West 1.2 mph /  1.9 km/h 1.2 mph /  1.9 km/h 53 % 0 in /  0.0 mm
20:48 49.8 °F /  9.9 °C 33.4 °F /  0.8 °C 30.2 in /  1021.9 hPa Calm     53 % 0 in /  0.0 mm
20:50 42.3 °F /  5.7 °C 30.2 °F /  -1.0 °C 30.1 in /  1019.9 hPa West 2 mph /  3.2 km/h 2 mph /  3.2 km/h 62 % 0 in /  0.0 mm
20:53 49.6 °F /  9.8 °C 33.3 °F /  0.7 °C 30.2 in /  1021.9 hPa SW 0.9 mph /  1.4 km/h   53 % 0 in /  0.0 mm
20:58 49.6 °F /  9.8 °C 33.3 °F /  0.7 °C 30.2 in /  1021.9 hPa SW 1.4 mph /  2.3 km/h 1.4 mph /  2.3 km/h 53 % 0 in /  0.0 mm
21:00 42.3 °F /  5.7 °C 30.2 °F /  -1.0 °C 30.1 in /  1019.9 hPa WSW 2 mph /  3.2 km/h 3 mph /  4.8 km/h 62 % 0 in /  0.0 mm
21:03 49.1 °F /  9.5 °C 32.7 °F /  0.4 °C 30.2 in /  1021.9 hPa SW 2.3 mph /  3.7 km/h 2.3 mph /  3.7 km/h 53 % 0 in /  0.0 mm
21:08 48.9 °F /  9.4 °C 32.5 °F /  0.3 °C 30.2 in /  1021.9 hPa SW 2.3 mph /  3.7 km/h 2.3 mph /  3.7 km/h 53 % 0 in /  0.0 mm
21:10 42.1 °F /  5.6 °C 30 °F /  -1.1 °C 30.2 in /  1020.9 hPa WSW 2 mph /  3.2 km/h 3 mph /  4.8 km/h 62 % 0 in /  0.0 mm
21:13 48.9 °F /  9.4 °C 32.5 °F /  0.3 °C 30.2 in /  1021.9 hPa SW 1.4 mph /  2.3 km/h 1.4 mph /  2.3 km/h 53 % 0 in /  0.0 mm
21:18 48.9 °F /  9.4 °C 32.5 °F /  0.3 °C 30.2 in /  1021.9 hPa WSW 1.6 mph /  2.6 km/h 1.6 mph /  2.6 km/h 53 % 0 in /  0.0 mm
21:20 42.4 °F /  5.8 °C 30.4 °F /  -0.9 °C 30.2 in /  1020.9 hPa WSW 1 mph /  1.6 km/h 3 mph /  4.8 km/h 62 % 0 in /  0.0 mm
21:23 48.9 °F /  9.4 °C 32.5 °F /  0.3 °C 30.2 in /  1021.9 hPa West 2.4 mph /  3.9 km/h 2.4 mph /  3.9 km/h 53 % 0 in /  0.0 mm
21:28 49.1 °F /  9.5 °C 32.7 °F /  0.4 °C 30.2 in /  1021.9 hPa West 1.4 mph /  2.3 km/h 1.4 mph /  2.3 km/h 53 % 0 in /  0.0 mm
21:30 42.8 °F /  6.0 °C 30.7 °F /  -0.7 °C 30.2 in /  1020.9 hPa Calm   2 mph /  3.2 km/h 62 % 0 in /  0.0 mm
21:33 48.9 °F /  9.4 °C 32.5 °F /  0.3 °C 30.2 in /  1021.9 hPa Calm     53 % 0 in /  0.0 mm
21:38 48.9 °F /  9.4 °C 32.5 °F /  0.3 °C 30.2 in /  1021.9 hPa West 2.3 mph /  3.7 km/h 2.3 mph /  3.7 km/h 53 % 0 in /  0.0 mm
21:40 42.6 °F /  5.9 °C 30.9 °F /  -0.6 °C 30.2 in /  1020.9 hPa WSW 1 mph /  1.6 km/h 2 mph /  3.2 km/h 63 % 0 in /  0.0 mm
21:43 49.1 °F /  9.5 °C 32.7 °F /  0.4 °C 30.2 in /  1021.9 hPa West 1.2 mph /  1.9 km/h 1.2 mph /  1.9 km/h 53 % 0 in /  0.0 mm
21:48 49.1 °F /  9.5 °C 32.7 °F /  0.4 °C 30.2 in /  1022.9 hPa Calm     53 % 0 in /  0.0 mm
21:50 41.7 °F /  5.4 °C 30 °F /  -1.1 °C 30.2 in /  1020.9 hPa WSW 2 mph /  3.2 km/h 2 mph /  3.2 km/h 63 % 0 in /  0.0 mm
21:53 49.1 °F /  9.5 °C 32.7 °F /  0.4 °C 30.2 in /  1022.9 hPa West 1.2 mph /  1.9 km/h 1.2 mph /  1.9 km/h 53 % 0 in /  0.0 mm
21:58 48.9 °F /  9.4 °C 32.5 °F /  0.3 °C 30.2 in /  1022.9 hPa WSW 2.3 mph /  3.7 km/h 2.3 mph /  3.7 km/h 53 % 0 in /  0.0 mm
22:00 42.1 °F /  5.6 °C 30.4 °F /  -0.9 °C 30.2 in /  1020.9 hPa WSW 1 mph /  1.6 km/h 2 mph /  3.2 km/h 63 % 0 in /  0.0 mm
22:03 48.4 °F /  9.1 °C 32 °F /  0.0 °C 30.2 in /  1021.9 hPa SW 2.4 mph /  3.9 km/h 2.4 mph /  3.9 km/h 53 % 0 in /  0.0 mm
22:08 48 °F /  8.9 °C 31.6 °F /  -0.2 °C 30.2 in /  1021.9 hPa WSW 2.3 mph /  3.7 km/h 2.3 mph /  3.7 km/h 53 % 0 in /  0.0 mm
22:10 42.1 °F /  5.6 °C 30.4 °F /  -0.9 °C 30.2 in /  1020.9 hPa West 1 mph /  1.6 km/h 2 mph /  3.2 km/h 63 % 0 in /  0.0 mm
22:13 47.8 °F /  8.8 °C 31.5 °F /  -0.3 °C 30.2 in /  1021.9 hPa WSW 2.3 mph /  3.7 km/h 2.3 mph /  3.7 km/h 53 % 0 in /  0.0 mm
22:18 47.8 °F /  8.8 °C 32 °F /  0.0 °C 30.2 in /  1021.9 hPa WNW 2 mph /  3.2 km/h 2 mph /  3.2 km/h 54 % 0 in /  0.0 mm
22:20 41.9 °F /  5.5 °C 30.2 °F /  -1.0 °C 30.2 in /  1020.9 hPa WSW 2 mph /  3.2 km/h 2 mph /  3.2 km/h 63 % 0 in /  0.0 mm
22:24 47.8 °F /  8.8 °C 32 °F /  0.0 °C 30.2 in /  1021.9 hPa SW 2.4 mph /  3.9 km/h 2.4 mph /  3.9 km/h 54 % 0 in /  0.0 mm
22:29 47.7 °F /  8.7 °C 31.8 °F /  -0.1 °C 30.2 in /  1021.9 hPa SW 1.4 mph /  2.3 km/h 1.6 mph /  2.6 km/h 54 % 0 in /  0.0 mm
22:30 41.9 °F /  5.5 °C 30.6 °F /  -0.8 °C 30.2 in /  1020.9 hPa Calm   2 mph /  3.2 km/h 64 % 0 in /  0.0 mm
22:34 47.3 °F /  8.5 °C 31.5 °F /  -0.3 °C 30.2 in /  1021.9 hPa SW 3.5 mph /  5.6 km/h 3.5 mph /  5.6 km/h 54 % 0 in /  0.0 mm
22:39 47.3 °F /  8.5 °C 31.5 °F /  -0.3 °C 30.2 in /  1021.9 hPa WSW 3.5 mph /  5.6 km/h 3.5 mph /  5.6 km/h 54 % 0 in /  0.0 mm
22:40 41.9 °F /  5.5 °C 30.6 °F /  -0.8 °C 30.1 in /  1019.9 hPa WSW 1 mph /  1.6 km/h 2 mph /  3.2 km/h 64 % 0 in /  0.0 mm
22:44 47.1 °F /  8.4 °C 31.3 °F /  -0.4 °C 30.2 in /  1021.9 hPa SW 1.4 mph /  2.3 km/h 1.4 mph /  2.3 km/h 54 % 0 in /  0.0 mm
22:49 47.1 °F /  8.4 °C 31.3 °F /  -0.4 °C 30.2 in /  1020.9 hPa SW 2.3 mph /  3.7 km/h 2.3 mph /  3.7 km/h 54 % 0 in /  0.0 mm
22:50 42.1 °F /  5.6 °C 30.7 °F /  -0.7 °C 30.1 in /  1019.9 hPa Calm   2 mph /  3.2 km/h 64 % 0 in /  0.0 mm
22:54 47.1 °F /  8.4 °C 31.3 °F /  -0.4 °C 30.2 in /  1020.9 hPa WSW 1.2 mph /  1.9 km/h 1.2 mph /  1.9 km/h 54 % 0 in /  0.0 mm
22:59 46.9 °F /  8.3 °C 31.1 °F /  -0.5 °C 30.2 in /  1020.9 hPa Calm     54 % 0 in /  0.0 mm
23:04 47.1 °F /  8.4 °C 31.3 °F /  -0.4 °C 30.2 in /  1021.9 hPa NW 2.3 mph /  3.7 km/h 2.3 mph /  3.7 km/h 54 % 0 in /  0.0 mm
23:09 47.1 °F /  8.4 °C 31.3 °F /  -0.4 °C 30.2 in /  1021.9 hPa NNW 1.4 mph /  2.3 km/h 1.4 mph /  2.3 km/h 54 % 0 in /  0.0 mm
23:10 41.4 °F /  5.2 °C 30 °F /  -1.1 °C 30.1 in /  1019.9 hPa NNW 1 mph /  1.6 km/h 1 mph /  1.6 km/h 64 % 0 in /  0.0 mm
23:14 46.9 °F /  8.3 °C 31.1 °F /  -0.5 °C 30.2 in /  1021.9 hPa NNW 1.2 mph /  1.9 km/h 1.2 mph /  1.9 km/h 54 % 0 in /  0.0 mm
23:19 46 °F /  7.8 °C 30.4 °F /  -0.9 °C 30.2 in /  1021.9 hPa SW 2.3 mph /  3.7 km/h 2.3 mph /  3.7 km/h 54 % 0 in /  0.0 mm
23:20 41.2 °F /  5.1 °C 30.4 °F /  -0.9 °C 30.1 in /  1019.9 hPa Calm   2 mph /  3.2 km/h 65 % 0 in /  0.0 mm
23:24 45.3 °F /  7.4 °C 29.7 °F /  -1.3 °C 30.2 in /  1021.9 hPa WSW 2.3 mph /  3.7 km/h 2.3 mph /  3.7 km/h 54 % 0 in /  0.0 mm
23:29 45.1 °F /  7.3 °C 29.8 °F /  -1.2 °C 30.2 in /  1021.9 hPa WSW 2.3 mph /  3.7 km/h 2.3 mph /  3.7 km/h 55 % 0 in /  0.0 mm
23:34 45.5 °F /  7.5 °C 30.4 °F /  -0.9 °C 30.2 in /  1021.9 hPa WSW 2.3 mph /  3.7 km/h 2.3 mph /  3.7 km/h 55 % 0 in /  0.0 mm
23:39 45.5 °F /  7.5 °C 30.4 °F /  -0.9 °C 30.2 in /  1021.9 hPa Calm     55 % 0 in /  0.0 mm
23:44 45.3 °F /  7.4 °C 30 °F /  -1.1 °C 30.2 in /  1021.9 hPa Calm     55 % 0 in /  0.0 mm
23:49 45.1 °F /  7.3 °C 30.4 °F /  -0.9 °C 30.2 in /  1021.9 hPa Calm     56 % 0 in /  0.0 mm
23:50 41 °F /  5.0 °C 30 °F /  -1.1 °C 30.1 in /  1019.9 hPa NNW 1 mph /  1.6 km/h 3 mph /  4.8 km/h 65 % 0 in /  0.0 mm
23:54 45 °F /  7.2 °C 30.2 °F /  -1.0 °C 30.2 in /  1021.9 hPa SSW 2 mph /  3.2 km/h   56 % 0 in /  0.0 mm
23:59 45 °F /  7.2 °C 30.2 °F /  -1.0 °C 30.2 in /  1021.9 hPa SW 2.4 mph /  3.9 km/h 2.4 mph /  3.9 km/h 56 % 0 in /  0.0 mm
Meteo Sesrovires
Elogis d' Weather Underground - 3.75 mb

Guio original per  Jim McMurry - jmcmurry@mwt.net Adaptat per a la plantilla per  Wim van der Kuil - Leuven-Template.eu

Trobareu la nostra informacio del temps tambe a:

Weather Underground

AWEKAS